createdAt,value
2018-06-27T00:00:30.767Z,0
2018-06-27T00:01:32.149Z,0
2018-06-27T00:02:33.538Z,0
2018-06-27T00:03:34.920Z,0
2018-06-27T00:04:36.311Z,0
2018-06-27T00:05:37.695Z,0
2018-06-27T00:06:39.078Z,0
2018-06-27T00:07:40.466Z,0
2018-06-27T00:08:41.853Z,0
2018-06-27T00:09:43.251Z,0
2018-06-27T00:10:44.632Z,0
2018-06-27T00:11:46.022Z,0
2018-06-27T00:12:47.413Z,0
2018-06-27T00:13:48.792Z,0
2018-06-27T00:14:50.168Z,0
2018-06-27T00:15:51.554Z,0
2018-06-27T00:16:52.933Z,0
2018-06-27T00:17:54.326Z,0
2018-06-27T00:18:55.708Z,0
2018-06-27T00:19:57.087Z,0
2018-06-27T00:20:58.467Z,0
2018-06-27T00:21:59.858Z,0
2018-06-27T00:23:01.249Z,0
2018-06-27T00:24:02.637Z,0
2018-06-27T00:25:04.031Z,0
2018-06-27T00:26:05.407Z,0
2018-06-27T00:27:06.800Z,0
2018-06-27T00:28:08.740Z,0
2018-06-27T00:29:10.129Z,0
2018-06-27T00:30:11.510Z,0
2018-06-27T00:31:12.892Z,0
2018-06-27T00:32:14.273Z,0
2018-06-27T00:33:15.652Z,0
2018-06-27T00:34:17.039Z,0
2018-06-27T00:35:18.428Z,0
2018-06-27T00:36:19.820Z,0
2018-06-27T00:37:21.197Z,0
2018-06-27T00:38:22.582Z,0
2018-06-27T00:39:23.963Z,0
2018-06-27T00:40:25.347Z,0
2018-06-27T00:41:26.742Z,0
2018-06-27T00:42:28.118Z,0
2018-06-27T00:43:29.498Z,0
2018-06-27T00:44:30.883Z,0
2018-06-27T00:45:32.266Z,0
2018-06-27T00:46:33.656Z,0
2018-06-27T00:47:35.047Z,0
2018-06-27T00:48:36.426Z,0
2018-06-27T00:49:37.810Z,0
2018-06-27T00:50:39.196Z,0
2018-06-27T00:51:40.588Z,0
2018-06-27T00:52:41.991Z,0
2018-06-27T00:53:43.367Z,0
2018-06-27T00:54:44.753Z,0
2018-06-27T00:55:46.632Z,0
2018-06-27T00:56:48.015Z,0
2018-06-27T00:57:49.409Z,0
2018-06-27T00:58:50.782Z,0
2018-06-27T00:59:52.166Z,0
2018-06-27T01:00:53.555Z,0
2018-06-27T01:01:54.935Z,0
2018-06-27T01:02:56.322Z,0
2018-06-27T01:03:57.699Z,0
2018-06-27T01:04:59.092Z,0
2018-06-27T01:06:00.467Z,0
2018-06-27T01:07:01.859Z,0
2018-06-27T01:08:03.237Z,0
2018-06-27T01:09:04.638Z,0
2018-06-27T01:10:06.021Z,0
2018-06-27T01:11:07.410Z,0
2018-06-27T01:12:08.798Z,0
2018-06-27T01:13:10.175Z,0
2018-06-27T01:14:11.571Z,0
2018-06-27T01:15:12.955Z,0
2018-06-27T01:16:14.336Z,0
2018-06-27T01:17:15.718Z,0
2018-06-27T01:18:17.108Z,0
2018-06-27T01:19:18.498Z,0
2018-06-27T01:20:19.881Z,0
2018-06-27T01:21:21.257Z,0
2018-06-27T01:22:22.643Z,0
2018-06-27T01:23:24.024Z,0
2018-06-27T01:24:25.408Z,0
2018-06-27T01:25:26.795Z,0
2018-06-27T01:26:28.190Z,0
2018-06-27T01:27:29.572Z,0
2018-06-27T01:28:30.950Z,0
2018-06-27T01:29:32.332Z,0
2018-06-27T01:30:33.706Z,0
2018-06-27T01:31:35.100Z,0
2018-06-27T01:32:36.479Z,0
2018-06-27T01:33:37.857Z,0
2018-06-27T01:34:39.238Z,0
2018-06-27T01:35:40.631Z,0
2018-06-27T01:36:42.039Z,0
2018-06-27T01:37:43.431Z,0
2018-06-27T01:38:44.817Z,0
2018-06-27T01:39:46.189Z,0
2018-06-27T01:40:47.584Z,0
2018-06-27T01:41:48.971Z,0
2018-06-27T01:42:50.361Z,0
2018-06-27T01:43:51.737Z,0
2018-06-27T01:44:53.122Z,0
2018-06-27T01:45:54.512Z,0
2018-06-27T01:46:55.898Z,0
2018-06-27T01:47:57.279Z,0
2018-06-27T01:48:58.670Z,0
2018-06-27T01:50:00.059Z,0
2018-06-27T01:51:01.446Z,0
2018-06-27T01:52:02.828Z,0
2018-06-27T01:53:04.212Z,0
2018-06-27T01:54:05.594Z,0
2018-06-27T01:55:06.970Z,0
2018-06-27T01:56:08.360Z,0
2018-06-27T01:57:09.745Z,0
2018-06-27T01:58:11.127Z,0
2018-06-27T01:59:12.505Z,0
2018-06-27T02:00:13.893Z,0
2018-06-27T02:01:15.277Z,0
2018-06-27T02:02:17.381Z,0
2018-06-27T02:03:18.775Z,0
2018-06-27T02:04:20.155Z,4
2018-06-27T02:05:21.531Z,4
2018-06-27T02:06:22.925Z,4
2018-06-27T02:07:24.311Z,0
2018-06-27T02:08:25.704Z,4
2018-06-27T02:09:27.078Z,4
2018-06-27T02:10:28.469Z,4
2018-06-27T02:11:29.847Z,4
2018-06-27T02:12:31.231Z,4
2018-06-27T02:13:32.612Z,8
2018-06-27T02:14:34.504Z,4
2018-06-27T02:15:35.892Z,8
2018-06-27T02:16:37.309Z,4
2018-06-27T02:17:38.644Z,8
2018-06-27T02:18:40.029Z,8
2018-06-27T02:19:41.416Z,12
2018-06-27T02:20:42.802Z,8
2018-06-27T02:21:44.180Z,12
2018-06-27T02:22:45.574Z,12
2018-06-27T02:23:46.954Z,12
2018-06-27T02:24:48.330Z,16
2018-06-27T02:25:49.715Z,20
2018-06-27T02:26:51.107Z,20
2018-06-27T02:27:52.490Z,20
2018-06-27T02:28:53.871Z,24
2018-06-27T02:29:55.263Z,24
2018-06-27T02:30:56.651Z,28
2018-06-27T02:31:58.031Z,32
2018-06-27T02:32:59.419Z,36
2018-06-27T02:34:00.809Z,36
2018-06-27T02:35:02.197Z,40
2018-06-27T02:36:03.577Z,40
2018-06-27T02:37:04.967Z,44
2018-06-27T02:38:06.349Z,48
2018-06-27T02:39:07.737Z,48
2018-06-27T02:40:09.119Z,56
2018-06-27T02:41:10.509Z,56
2018-06-27T02:42:11.906Z,64
2018-06-27T02:43:13.271Z,64
2018-06-27T02:44:14.652Z,72
2018-06-27T02:45:16.048Z,72
2018-06-27T02:46:17.425Z,76
2018-06-27T02:47:18.814Z,84
2018-06-27T02:48:20.188Z,84
2018-06-27T02:49:21.584Z,92
2018-06-27T02:50:22.965Z,96
2018-06-27T02:51:24.360Z,100
2018-06-27T02:52:25.751Z,108
2018-06-27T02:53:27.126Z,112
2018-06-27T02:54:28.502Z,120
2018-06-27T02:55:29.893Z,128
2018-06-27T02:56:31.278Z,132
2018-06-27T02:57:32.655Z,140
2018-06-27T02:58:34.055Z,148
2018-06-27T02:59:35.433Z,152
2018-06-27T03:00:36.822Z,160
2018-06-27T03:01:38.213Z,168
2018-06-27T03:02:39.605Z,172
2018-06-27T03:03:40.985Z,176
2018-06-27T03:04:42.380Z,188
2018-06-27T03:05:43.771Z,188
2018-06-27T03:06:45.164Z,200
2018-06-27T03:07:46.563Z,204
2018-06-27T03:08:47.957Z,212
2018-06-27T03:09:49.333Z,220
2018-06-27T03:10:50.714Z,228
2018-06-27T03:11:52.094Z,236
2018-06-27T03:12:53.491Z,240
2018-06-27T03:13:54.836Z,248
2018-06-27T03:14:56.224Z,260
2018-06-27T03:15:57.621Z,268
2018-06-27T03:16:59.001Z,276
2018-06-27T03:18:00.392Z,284
2018-06-27T03:19:01.782Z,300
2018-06-27T03:20:03.164Z,308
2018-06-27T03:21:04.551Z,316
2018-06-27T03:22:05.942Z,332
2018-06-27T03:23:08.199Z,340
2018-06-27T03:24:09.588Z,356
2018-06-27T03:25:10.986Z,372
2018-06-27T03:26:12.373Z,384
2018-06-27T03:27:13.751Z,400
2018-06-27T03:28:15.141Z,412
2018-06-27T03:29:17.308Z,416
2018-06-27T03:30:17.888Z,432
2018-06-27T03:31:19.264Z,444
2018-06-27T03:32:20.654Z,464
2018-06-27T03:33:22.039Z,468
2018-06-27T03:34:23.431Z,460
2018-06-27T03:35:24.819Z,460
2018-06-27T03:36:26.208Z,472
2018-06-27T03:37:27.594Z,476
2018-06-27T03:38:28.984Z,484
2018-06-27T03:39:30.368Z,492
2018-06-27T03:40:31.754Z,500
2018-06-27T03:41:33.138Z,504
2018-06-27T03:42:34.538Z,508
2018-06-27T03:43:36.536Z,520
2018-06-27T03:44:37.932Z,524
2018-06-27T03:45:39.323Z,536
2018-06-27T03:46:40.719Z,524
2018-06-27T03:47:42.103Z,532
2018-06-27T03:48:43.499Z,544
2018-06-27T03:49:44.891Z,548
2018-06-27T03:50:46.277Z,560
2018-06-27T03:51:47.665Z,552
2018-06-27T03:52:49.050Z,576
2018-06-27T03:53:50.438Z,580
2018-06-27T03:54:51.827Z,588
2018-06-27T03:55:53.215Z,600
2018-06-27T03:56:54.603Z,604
2018-06-27T03:57:55.993Z,612
2018-06-27T03:58:57.393Z,612
2018-06-27T03:59:58.762Z,644
2018-06-27T04:01:00.154Z,656
2018-06-27T04:02:01.539Z,696
2018-06-27T04:03:02.922Z,724
2018-06-27T04:04:04.312Z,772
2018-06-27T04:05:05.686Z,784
2018-06-27T04:06:07.082Z,952
2018-06-27T04:07:08.460Z,1276
2018-06-27T04:08:09.856Z,1528
2018-06-27T04:09:11.238Z,1200
2018-06-27T04:10:12.622Z,1176
2018-06-27T04:11:14.007Z,1848
2018-06-27T04:12:15.397Z,1468
2018-06-27T04:13:16.854Z,1952
2018-06-27T04:14:18.126Z,1672
2018-06-27T04:15:19.527Z,1696
2018-06-27T04:16:20.905Z,1744
2018-06-27T04:17:22.301Z,1384
2018-06-27T04:18:23.693Z,1972
2018-06-27T04:19:25.079Z,1592
2018-06-27T04:20:26.456Z,2188
2018-06-27T04:21:27.847Z,2172
2018-06-27T04:22:29.235Z,2224
2018-06-27T04:23:30.624Z,2272
2018-06-27T04:24:32.013Z,2196
2018-06-27T04:25:33.394Z,2148
2018-06-27T04:26:34.784Z,3448
2018-06-27T04:27:36.164Z,2576
2018-06-27T04:28:37.564Z,2828
2018-06-27T04:29:38.946Z,2480
2018-06-27T04:30:40.340Z,3420
2018-06-27T04:31:41.726Z,3832
2018-06-27T04:32:43.114Z,3360
2018-06-27T04:33:44.502Z,2688
2018-06-27T04:34:45.881Z,3712
2018-06-27T04:35:47.329Z,3104
2018-06-27T04:36:48.672Z,3952
2018-06-27T04:37:50.061Z,3532
2018-06-27T04:38:51.458Z,3368
2018-06-27T04:39:52.844Z,3160
2018-06-27T04:40:55.015Z,2964
2018-06-27T04:41:56.402Z,3136
2018-06-27T04:42:57.793Z,3624
2018-06-27T04:43:59.185Z,4868
2018-06-27T04:45:00.580Z,5760
2018-06-27T04:46:01.965Z,4832
2018-06-27T04:47:03.361Z,4204
2018-06-27T04:48:04.775Z,3724
2018-06-27T04:49:06.167Z,3528
2018-06-27T04:50:07.556Z,3468
2018-06-27T04:51:08.955Z,3672
2018-06-27T04:52:10.341Z,4176
2018-06-27T04:53:11.785Z,4604
2018-06-27T04:54:13.119Z,3372
2018-06-27T04:55:14.511Z,2716
2018-06-27T04:56:15.908Z,2536
2018-06-27T04:57:17.298Z,2548
2018-06-27T04:58:18.687Z,2744
2018-06-27T04:59:20.074Z,3056
2018-06-27T05:00:21.471Z,3380
2018-06-27T05:01:22.853Z,3792
2018-06-27T05:02:24.248Z,3996
2018-06-27T05:03:25.631Z,4000
2018-06-27T05:04:27.040Z,3952
2018-06-27T05:05:28.426Z,3852
2018-06-27T05:06:29.829Z,3840
2018-06-27T05:07:31.229Z,3892
2018-06-27T05:08:33.459Z,3908
2018-06-27T05:09:34.848Z,4376
2018-06-27T05:10:36.240Z,4512
2018-06-27T05:11:37.670Z,3932
2018-06-27T05:12:39.029Z,4060
2018-06-27T05:13:40.423Z,5516
2018-06-27T05:14:41.813Z,9180
2018-06-27T05:15:43.203Z,12504
2018-06-27T05:16:44.599Z,13440
2018-06-27T05:17:45.989Z,14400
2018-06-27T05:18:47.392Z,16256
2018-06-27T05:19:48.781Z,17600
2018-06-27T05:20:50.949Z,17632
2018-06-27T05:21:52.368Z,18048
2018-06-27T05:22:53.742Z,13952
2018-06-27T05:23:55.134Z,9596
2018-06-27T05:24:56.529Z,6868
2018-06-27T05:25:57.917Z,6772
2018-06-27T05:26:59.312Z,6652
2018-06-27T05:28:00.700Z,6372
2018-06-27T05:29:02.102Z,5912
2018-06-27T05:30:03.489Z,6092
2018-06-27T05:31:04.882Z,6404
2018-06-27T05:32:06.284Z,6360
2018-06-27T05:33:07.683Z,6384
2018-06-27T05:34:09.080Z,6388
2018-06-27T05:35:10.464Z,6364
2018-06-27T05:36:11.861Z,5912
2018-06-27T05:37:13.265Z,5392
2018-06-27T05:38:14.656Z,5776
2018-06-27T05:39:16.045Z,5996
2018-06-27T05:40:17.435Z,5920
2018-06-27T05:41:18.836Z,6648
2018-06-27T05:42:20.245Z,7364
2018-06-27T05:43:21.631Z,11576
2018-06-27T05:44:23.101Z,19424
2018-06-27T05:45:24.417Z,24992
2018-06-27T05:46:25.817Z,27648
2018-06-27T05:47:27.215Z,26240
2018-06-27T05:48:28.611Z,26048
2018-06-27T05:49:30.001Z,25696
2018-06-27T05:50:31.407Z,26816
2018-06-27T05:51:32.833Z,28736
2018-06-27T05:52:34.847Z,29472
2018-06-27T05:53:36.246Z,28320
2018-06-27T05:54:37.656Z,30720
2018-06-27T05:55:39.040Z,32544
2018-06-27T05:56:40.460Z,32960
2018-06-27T05:57:41.845Z,34592
2018-06-27T05:58:43.252Z,35840
2018-06-27T05:59:44.648Z,36096
2018-06-27T06:00:46.057Z,35392
2018-06-27T06:01:48.402Z,32096
2018-06-27T06:02:49.796Z,28224
2018-06-27T06:03:51.205Z,31328
2018-06-27T06:04:52.601Z,32256
2018-06-27T06:05:54.008Z,31904
2018-06-27T06:06:55.403Z,32832
2018-06-27T06:07:56.812Z,33600
2018-06-27T06:08:58.219Z,33216
2018-06-27T06:09:59.673Z,32768
2018-06-27T06:11:01.013Z,34880
2018-06-27T06:12:02.941Z,37760
2018-06-27T06:13:04.348Z,39136
2018-06-27T06:14:05.750Z,37920
2018-06-27T06:15:07.162Z,37120
2018-06-27T06:16:08.568Z,35776
2018-06-27T06:17:09.986Z,32352
2018-06-27T06:18:11.391Z,35904
2018-06-27T06:19:12.791Z,40544
2018-06-27T06:20:14.200Z,39488
2018-06-27T06:21:15.613Z,40800
2018-06-27T06:22:17.032Z,45120
2018-06-27T06:23:18.445Z,39328
2018-06-27T06:24:19.859Z,35296
2018-06-27T06:25:21.274Z,37344
2018-06-27T06:26:22.675Z,44416
2018-06-27T06:27:24.089Z,46560
2018-06-27T06:28:26.277Z,41376
2018-06-27T06:29:27.697Z,36128
2018-06-27T06:30:29.125Z,38208
2018-06-27T06:31:30.529Z,39648
2018-06-27T06:32:31.970Z,40512
2018-06-27T06:33:33.347Z,37568
2018-06-27T06:34:34.761Z,30880
2018-06-27T06:35:36.181Z,20064
2018-06-27T06:36:37.645Z,15200
2018-06-27T06:37:39.057Z,15232
2018-06-27T06:38:40.481Z,15072
2018-06-27T06:39:41.884Z,14848
2018-06-27T06:40:43.299Z,15072
2018-06-27T06:41:44.719Z,15232
2018-06-27T06:42:46.160Z,15296
2018-06-27T06:43:48.455Z,15136
2018-06-27T06:44:49.881Z,15232
2018-06-27T06:45:51.309Z,15264
2018-06-27T06:46:52.732Z,15424
2018-06-27T06:47:54.191Z,15968
2018-06-27T06:48:55.609Z,16032
2018-06-27T06:49:57.025Z,15680
2018-06-27T06:50:58.474Z,15968
2018-06-27T06:51:59.888Z,16320
2018-06-27T06:53:02.100Z,16192
2018-06-27T06:54:03.507Z,15968
2018-06-27T06:55:04.922Z,15808
2018-06-27T06:56:06.335Z,15776
2018-06-27T06:57:07.758Z,15584
2018-06-27T06:58:09.155Z,15776
2018-06-27T06:59:10.579Z,15776
2018-06-27T07:00:12.013Z,16128
2018-06-27T07:01:13.422Z,5776
2018-06-27T07:02:14.821Z,16384
2018-06-27T07:03:16.239Z,18272
2018-06-27T07:04:17.672Z,18944
2018-06-27T07:05:19.051Z,8844
2018-06-27T07:06:20.459Z,16320
2018-06-27T07:07:21.868Z,16192
2018-06-27T07:08:23.279Z,16288
2018-06-27T07:09:24.692Z,16544
2018-06-27T07:10:26.093Z,18368
2018-06-27T07:11:27.510Z,21056
2018-06-27T07:12:28.916Z,19552
2018-06-27T07:13:30.325Z,18048
2018-06-27T07:14:31.722Z,18016
2018-06-27T07:15:33.135Z,17376
2018-06-27T07:16:34.600Z,17376
2018-06-27T07:17:36.015Z,18016
2018-06-27T07:18:37.430Z,15968
2018-06-27T07:19:38.830Z,19808
2018-06-27T07:20:40.240Z,19584
2018-06-27T07:21:41.651Z,18112
2018-06-27T07:22:43.059Z,17184
2018-06-27T07:23:44.456Z,17024
2018-06-27T07:24:45.865Z,17376
2018-06-27T07:25:47.263Z,18432
2018-06-27T07:26:48.677Z,20224
2018-06-27T07:27:50.086Z,20064
2018-06-27T07:28:51.562Z,18240
2018-06-27T07:29:52.870Z,18176
2018-06-27T07:30:54.271Z,20480
2018-06-27T07:31:55.671Z,21088
2018-06-27T07:32:57.079Z,19104
2018-06-27T07:33:58.487Z,18112
2018-06-27T07:34:59.889Z,17568
2018-06-27T07:36:01.405Z,18720
2018-06-27T07:37:02.663Z,18912
2018-06-27T07:38:04.083Z,17856
2018-06-27T07:39:05.490Z,12080
2018-06-27T07:40:06.905Z,19392
2018-06-27T07:41:08.307Z,8748
2018-06-27T07:42:09.715Z,10492
2018-06-27T07:43:11.136Z,7648
2018-06-27T07:44:12.530Z,3672
2018-06-27T07:45:13.936Z,4008
2018-06-27T07:46:15.331Z,4352
2018-06-27T07:47:16.734Z,3680
2018-06-27T07:48:18.141Z,3468
2018-06-27T07:49:19.570Z,4888
2018-06-27T07:50:20.967Z,3252
2018-06-27T07:51:22.364Z,3668
2018-06-27T07:52:23.773Z,5748
2018-06-27T07:53:25.178Z,3764
2018-06-27T07:54:26.586Z,4416
2018-06-27T07:55:27.997Z,4348
2018-06-27T07:56:29.388Z,0
2018-06-27T07:57:30.790Z,6268
2018-06-27T07:58:32.199Z,10340
2018-06-27T07:59:33.603Z,9652
2018-06-27T08:00:34.996Z,4976
2018-06-27T08:01:36.404Z,7304
2018-06-27T08:02:37.795Z,1040
2018-06-27T08:03:39.196Z,6660
2018-06-27T08:04:40.600Z,11252
2018-06-27T08:05:42.002Z,4744
2018-06-27T08:06:43.399Z,4832
2018-06-27T08:07:44.797Z,5556
2018-06-27T08:08:46.208Z,4176
2018-06-27T08:09:47.606Z,9328
2018-06-27T08:10:49.008Z,11640
2018-06-27T08:11:50.452Z,4092
2018-06-27T08:12:51.800Z,1864
2018-06-27T08:13:53.201Z,2180
2018-06-27T08:14:54.598Z,3908
2018-06-27T08:15:55.999Z,5000
2018-06-27T08:16:57.404Z,2140
2018-06-27T08:17:58.911Z,4148
2018-06-27T08:19:00.158Z,4896
2018-06-27T08:20:01.559Z,4488
2018-06-27T08:21:02.973Z,6120
2018-06-27T08:22:04.378Z,3340
2018-06-27T08:23:05.778Z,4376
2018-06-27T08:24:07.169Z,2532
2018-06-27T08:25:08.572Z,2232
2018-06-27T08:26:09.988Z,3624
2018-06-27T08:27:11.375Z,4236
2018-06-27T08:28:12.774Z,3888
2018-06-27T08:29:14.181Z,3540
2018-06-27T08:30:15.581Z,13376
2018-06-27T08:31:16.989Z,2864
2018-06-27T08:32:18.378Z,2932
2018-06-27T08:33:19.780Z,3428
2018-06-27T08:34:21.204Z,3132
2018-06-27T08:35:22.599Z,4172
2018-06-27T08:36:24.001Z,3596
2018-06-27T08:37:25.395Z,3696
2018-06-27T08:38:26.784Z,4676
2018-06-27T08:39:28.207Z,3888
2018-06-27T08:40:29.624Z,2612
2018-06-27T08:41:31.017Z,2996
2018-06-27T08:42:32.430Z,4300
2018-06-27T08:43:33.845Z,5272
2018-06-27T08:44:35.222Z,4708
2018-06-27T08:45:36.616Z,3588
2018-06-27T08:46:38.012Z,3068
2018-06-27T08:47:40.077Z,3216
2018-06-27T08:48:41.472Z,2408
2018-06-27T08:49:42.869Z,3680
2018-06-27T08:50:44.824Z,4548
2018-06-27T08:51:46.217Z,2880
2018-06-27T08:52:47.613Z,2636
2018-06-27T08:53:49.003Z,3720
2018-06-27T08:54:50.409Z,2696
2018-06-27T08:55:51.809Z,3156
2018-06-27T08:56:53.824Z,2364
2018-06-27T08:57:55.215Z,2636
2018-06-27T08:58:56.618Z,3096
2018-06-27T08:59:58.017Z,2912
2018-06-27T09:00:59.457Z,3200
2018-06-27T09:02:00.857Z,3524
2018-06-27T09:03:02.259Z,4916
2018-06-27T09:04:03.665Z,2972
2018-06-27T09:05:05.068Z,2808
2018-06-27T09:06:06.468Z,3252
2018-06-27T09:07:07.854Z,3584
2018-06-27T09:08:09.258Z,3672
2018-06-27T09:09:10.664Z,3192
2018-06-27T09:10:12.062Z,3128
2018-06-27T09:11:13.456Z,3652
2018-06-27T09:12:15.552Z,4004
2018-06-27T09:13:16.965Z,5532
2018-06-27T09:14:18.346Z,3996
2018-06-27T09:15:19.750Z,6624
2018-06-27T09:16:21.155Z,5372
2018-06-27T09:17:22.585Z,4700
2018-06-27T09:18:23.990Z,3512
2018-06-27T09:19:25.395Z,2952
2018-06-27T09:20:26.794Z,3300
2018-06-27T09:21:28.201Z,5192
2018-06-27T09:22:29.600Z,5252
2018-06-27T09:23:32.842Z,2792
2018-06-27T09:24:34.225Z,2972
2018-06-27T09:25:35.621Z,4236
2018-06-27T09:26:37.024Z,2736
2018-06-27T09:27:38.419Z,3224
2018-06-27T09:28:39.820Z,2764
2018-06-27T09:29:41.226Z,3240
2018-06-27T09:30:42.625Z,3040
2018-06-27T09:31:44.036Z,3736
2018-06-27T09:32:45.441Z,4416
2018-06-27T09:33:46.843Z,4892
2018-06-27T09:34:48.255Z,3660
2018-06-27T09:35:49.647Z,3900
2018-06-27T09:36:51.044Z,5188
2018-06-27T09:37:52.438Z,4560
2018-06-27T09:38:54.432Z,3980
2018-06-27T09:39:55.832Z,2696
2018-06-27T09:40:57.230Z,3596
2018-06-27T09:41:58.644Z,4396
2018-06-27T09:43:00.051Z,3724
2018-06-27T09:44:01.462Z,3876
2018-06-27T09:45:02.849Z,3272
2018-06-27T09:46:04.248Z,2772
2018-06-27T09:47:05.639Z,3100
2018-06-27T09:48:07.122Z,3516
2018-06-27T09:49:08.413Z,3212
2018-06-27T09:50:09.815Z,3392
2018-06-27T09:51:11.207Z,2912
2018-06-27T09:52:12.609Z,2816
2018-06-27T09:53:14.001Z,2912
2018-06-27T09:54:15.411Z,4336
2018-06-27T09:55:16.797Z,4532
2018-06-27T09:56:18.197Z,4696
2018-06-27T09:57:19.602Z,3864
2018-06-27T09:58:20.989Z,3940
2018-06-27T09:59:22.393Z,3508
2018-06-27T10:00:23.801Z,3424
2018-06-27T10:01:25.193Z,3968
2018-06-27T10:02:26.595Z,4388
2018-06-27T10:03:28.006Z,6044
2018-06-27T10:04:29.397Z,4556
2018-06-27T10:05:30.786Z,4616
2018-06-27T10:06:32.184Z,4880
2018-06-27T10:07:33.622Z,5504
2018-06-27T10:08:34.970Z,5332
2018-06-27T10:09:36.368Z,5400
2018-06-27T10:10:37.764Z,5252
2018-06-27T10:11:39.170Z,5092
2018-06-27T10:12:40.568Z,4852
2018-06-27T10:13:41.962Z,4920
2018-06-27T10:14:43.365Z,5508
2018-06-27T10:15:44.768Z,5568
2018-06-27T10:16:46.176Z,5944
2018-06-27T10:17:47.579Z,5184
2018-06-27T10:18:48.975Z,5524
2018-06-27T10:19:50.376Z,5268
2018-06-27T10:20:51.774Z,4376
2018-06-27T10:21:53.175Z,4640
2018-06-27T10:22:54.657Z,4276
2018-06-27T10:23:56.045Z,4252
2018-06-27T10:24:57.443Z,5024
2018-06-27T10:25:58.852Z,4752
2018-06-27T10:27:00.245Z,5612
2018-06-27T10:28:01.643Z,4892
2018-06-27T10:29:03.044Z,4828
2018-06-27T10:30:04.461Z,5464
2018-06-27T10:31:05.856Z,5168
2018-06-27T10:32:07.253Z,5780
2018-06-27T10:33:08.652Z,5728
2018-06-27T10:34:10.051Z,5096
2018-06-27T10:35:11.462Z,4484
2018-06-27T10:36:12.859Z,4604
2018-06-27T10:37:14.268Z,4956
2018-06-27T10:38:15.657Z,4776
2018-06-27T10:39:17.054Z,4504
2018-06-27T10:40:18.447Z,4692
2018-06-27T10:41:19.836Z,5628
2018-06-27T10:42:21.241Z,5672
2018-06-27T10:43:22.635Z,6128
2018-06-27T10:44:24.029Z,5728
2018-06-27T10:45:25.429Z,6100
2018-06-27T10:46:26.821Z,4836
2018-06-27T10:47:28.229Z,5220
2018-06-27T10:48:29.615Z,5592
2018-06-27T10:49:31.057Z,5264
2018-06-27T10:50:32.453Z,5068
2018-06-27T10:51:33.864Z,4824
2018-06-27T10:52:35.266Z,5068
2018-06-27T10:53:36.715Z,4204
2018-06-27T10:54:38.108Z,3584
2018-06-27T10:55:39.532Z,3560
2018-06-27T10:56:40.942Z,3388
2018-06-27T10:57:42.350Z,3308
2018-06-27T10:58:43.749Z,4452
2018-06-27T10:59:45.149Z,4060
2018-06-27T11:00:46.548Z,4528
2018-06-27T11:01:47.951Z,5436
2018-06-27T11:02:49.344Z,5984
2018-06-27T11:03:50.746Z,5548
2018-06-27T11:04:52.142Z,4584
2018-06-27T11:05:53.544Z,4076
2018-06-27T11:06:54.946Z,4052
2018-06-27T11:07:56.341Z,5020
2018-06-27T11:08:57.739Z,5016
2018-06-27T11:09:59.137Z,5000
2018-06-27T11:11:00.524Z,6164
2018-06-27T11:12:01.924Z,6080
2018-06-27T11:13:03.321Z,5656
2018-06-27T11:14:04.746Z,5548
2018-06-27T11:15:07.035Z,4568
2018-06-27T11:16:07.474Z,5172
2018-06-27T11:17:08.871Z,4900
2018-06-27T11:18:10.281Z,6208
2018-06-27T11:19:11.677Z,6704
2018-06-27T11:20:13.075Z,7320
2018-06-27T11:21:14.470Z,6784
2018-06-27T11:22:15.872Z,6428
2018-06-27T11:23:17.260Z,5484
2018-06-27T11:24:18.659Z,4376
2018-06-27T11:25:20.060Z,4292
2018-06-27T11:26:21.461Z,4316
2018-06-27T11:27:22.854Z,3920
2018-06-27T11:28:24.248Z,7016
2018-06-27T11:29:25.644Z,5632
2018-06-27T11:30:27.069Z,3928
2018-06-27T11:31:28.464Z,3444
2018-06-27T11:32:29.862Z,5012
2018-06-27T11:33:31.255Z,4044
2018-06-27T11:34:32.668Z,4764
2018-06-27T11:35:34.935Z,4628
2018-06-27T11:36:36.350Z,6564
2018-06-27T11:37:37.748Z,4596
2018-06-27T11:38:39.263Z,5292
2018-06-27T11:39:40.505Z,11780
2018-06-27T11:40:41.897Z,10160
2018-06-27T11:41:43.305Z,9012
2018-06-27T11:42:44.710Z,8636
2018-06-27T11:43:46.107Z,11052
2018-06-27T11:44:47.505Z,10220
2018-06-27T11:45:48.909Z,12356
2018-06-27T11:46:50.315Z,6376
2018-06-27T11:47:51.704Z,4260
2018-06-27T11:48:53.105Z,5088
2018-06-27T11:49:54.504Z,9236
2018-06-27T11:50:55.900Z,75232
2018-06-27T11:51:57.903Z,83456
2018-06-27T11:52:59.309Z,97632
2018-06-27T11:54:00.716Z,114528
2018-06-27T11:55:02.122Z,14900
2018-06-27T11:56:03.522Z,45664
2018-06-27T11:57:04.946Z,76288
2018-06-27T11:58:06.342Z,97696
2018-06-27T11:59:07.751Z,18656
2018-06-27T12:00:09.143Z,29568
2018-06-27T12:01:10.546Z,4372
2018-06-27T12:02:11.946Z,43936
2018-06-27T12:03:13.355Z,48384
2018-06-27T12:04:14.775Z,80416
2018-06-27T12:05:16.161Z,66784
2018-06-27T12:06:17.563Z,139936
2018-06-27T12:07:18.989Z,156320
2018-06-27T12:08:20.402Z,68448
2018-06-27T12:09:21.825Z,88640
2018-06-27T12:10:23.351Z,47136
2018-06-27T12:11:24.741Z,107936
2018-06-27T12:12:26.142Z,34432
2018-06-27T12:13:27.549Z,82112
2018-06-27T12:14:28.937Z,21888
2018-06-27T12:15:30.361Z,9824
2018-06-27T12:16:31.763Z,36608
2018-06-27T12:17:33.162Z,4144
2018-06-27T12:18:34.629Z,3376
2018-06-27T12:19:36.082Z,3220
2018-06-27T12:20:37.470Z,3580
2018-06-27T12:21:39.018Z,4472
2018-06-27T12:22:40.432Z,17984
2018-06-27T12:23:41.836Z,15828
2018-06-27T12:24:43.232Z,7236
2018-06-27T12:25:44.630Z,7404
2018-06-27T12:26:46.035Z,83264
2018-06-27T12:27:47.444Z,60736
2018-06-27T12:28:48.842Z,42368
2018-06-27T12:29:50.252Z,35936
2018-06-27T12:30:51.652Z,34624
2018-06-27T12:31:53.055Z,42336
2018-06-27T12:32:54.467Z,54368
2018-06-27T12:33:55.873Z,11444
2018-06-27T12:34:57.267Z,5248
2018-06-27T12:35:58.679Z,71584
2018-06-27T12:37:00.082Z,39648
2018-06-27T12:38:01.482Z,4220
2018-06-27T12:39:02.875Z,3860
2018-06-27T12:40:04.285Z,6388
2018-06-27T12:41:05.685Z,8364
2018-06-27T12:42:07.095Z,4596
2018-06-27T12:43:08.495Z,7456
2018-06-27T12:44:09.908Z,5520
2018-06-27T12:45:11.315Z,4516
2018-06-27T12:46:12.707Z,2796
2018-06-27T12:47:14.061Z,2584
2018-06-27T12:48:15.417Z,3448
2018-06-27T12:49:16.773Z,2556
2018-06-27T12:50:18.173Z,2600
2018-06-27T12:51:19.504Z,2928
2018-06-27T12:52:21.000Z,3424
2018-06-27T12:53:22.362Z,4292
2018-06-27T12:54:23.818Z,5356
2018-06-27T12:55:25.210Z,5076
2018-06-27T12:56:26.607Z,5036
2018-06-27T12:57:28.009Z,5000
2018-06-27T12:58:29.406Z,5060
2018-06-27T12:59:30.811Z,27360
2018-06-27T13:00:32.858Z,27744
2018-06-27T13:01:34.225Z,19104
2018-06-27T13:02:35.628Z,4516
2018-06-27T13:03:37.021Z,4096
2018-06-27T13:04:38.370Z,3848
2018-06-27T13:05:39.771Z,3652
2018-06-27T13:06:41.178Z,3548
2018-06-27T13:07:42.776Z,3388
2018-06-27T13:08:44.253Z,3520
2018-06-27T13:09:45.658Z,3632
2018-06-27T13:10:47.147Z,4044
2018-06-27T13:11:49.164Z,3768
2018-06-27T13:12:50.560Z,3764
2018-06-27T13:13:52.791Z,3884
2018-06-27T13:14:54.186Z,3976
2018-06-27T13:15:55.588Z,3552
2018-06-27T13:16:57.322Z,3596
2018-06-27T13:17:58.716Z,3472
2018-06-27T13:19:00.630Z,3160
2018-06-27T13:20:02.586Z,2892
2018-06-27T13:21:04.714Z,2820
2018-06-27T13:22:06.238Z,2792
2018-06-27T13:23:08.384Z,2772
2018-06-27T13:24:09.778Z,2840
2018-06-27T13:25:11.253Z,2688
2018-06-27T13:26:13.224Z,2608
2018-06-27T13:27:14.617Z,3104
2018-06-27T13:28:16.027Z,3208
2018-06-27T13:29:17.383Z,3192
2018-06-27T13:30:18.780Z,2984
2018-06-27T13:31:20.768Z,3240
2018-06-27T13:32:22.172Z,3572
2018-06-27T13:33:24.710Z,3988
2018-06-27T13:34:26.763Z,4288
2018-06-27T13:35:28.162Z,3832
2018-06-27T13:36:29.566Z,3328
2018-06-27T13:37:30.963Z,3404
2018-06-27T13:38:32.365Z,3332
2018-06-27T13:39:34.249Z,3452
2018-06-27T13:40:35.646Z,3720
2018-06-27T13:41:37.040Z,3516
2018-06-27T13:42:38.448Z,3628
2018-06-27T13:43:39.883Z,3532
2018-06-27T13:44:41.273Z,3624
2018-06-27T13:45:42.674Z,3824
2018-06-27T13:46:44.082Z,3632
2018-06-27T13:47:45.459Z,3076
2018-06-27T13:48:46.866Z,2972
2018-06-27T13:49:48.254Z,2868